Hudson Bay, Canada
Current Conditions -  °F | °C
As of 5:00 AM on Friday 19 Dec 2014 (Local Time) from CYBU Reporting Station
Overcast Overcast  
Wind Chill: 11°   Ceiling: 900
Heat Index: 19°   Visibility: 9mi
Dew Point: 18°   Wind: 6mph
Humidity: 93%   Direction: 290°WNW
Pressure: 29.94"   Gusts: NA
Location:  52.86°N, 102.39°W
Report Text: CYBU 191100Z AUTO 29005KT 9SM OVC009 M07/M08 A2994 RMK SLP165
Loading
Personal Weather Stations






























Interactive Weather Map New forecast layout! Learn more

10-Day Weather Forecast

Advertisements
Track Severe Weather on mobile